sensor_id;sensor_type;location;lat;lon;timestamp;P1;durP1;ratioP1;P2;durP2;ratioP2
50086;SDS011;35967;50.718;7.050;2024-02-28T00:06:56;83.10;;;39.33;;
50086;SDS011;35967;50.718;7.050;2024-02-28T00:17:01;89.30;;;37.53;;
50086;SDS011;35967;50.718;7.050;2024-02-28T00:27:04;76.03;;;36.00;;
50086;SDS011;35967;50.718;7.050;2024-02-28T00:37:09;83.73;;;37.87;;
50086;SDS011;35967;50.718;7.050;2024-02-28T00:47:12;81.07;;;37.13;;
50086;SDS011;35967;50.718;7.050;2024-02-28T00:57:16;91.73;;;41.00;;
50086;SDS011;35967;50.718;7.050;2024-02-28T01:07:20;85.90;;;39.13;;
50086;SDS011;35967;50.718;7.050;2024-02-28T01:17:24;89.03;;;40.60;;
50086;SDS011;35967;50.718;7.050;2024-02-28T01:27:27;88.63;;;41.13;;
50086;SDS011;35967;50.718;7.050;2024-02-28T01:37:31;96.60;;;42.77;;
50086;SDS011;35967;50.718;7.050;2024-02-28T01:47:34;95.27;;;43.77;;
50086;SDS011;35967;50.718;7.050;2024-02-28T01:57:38;92.80;;;44.90;;
50086;SDS011;35967;50.718;7.050;2024-02-28T02:07:42;95.23;;;45.33;;
50086;SDS011;35967;50.718;7.050;2024-02-28T02:17:47;94.03;;;42.80;;
50086;SDS011;35967;50.718;7.050;2024-02-28T02:27:51;98.03;;;44.90;;
50086;SDS011;35967;50.718;7.050;2024-02-28T02:37:54;94.17;;;41.03;;
50086;SDS011;35967;50.718;7.050;2024-02-28T02:47:59;96.87;;;42.20;;
50086;SDS011;35967;50.718;7.050;2024-02-28T02:58:02;90.30;;;40.30;;
50086;SDS011;35967;50.718;7.050;2024-02-28T03:08:07;82.20;;;38.77;;
50086;SDS011;35967;50.718;7.050;2024-02-28T03:18:10;84.00;;;40.00;;
50086;SDS011;35967;50.718;7.050;2024-02-28T03:28:31;82.97;;;38.77;;
50086;SDS011;35967;50.718;7.050;2024-02-28T03:38:34;80.03;;;38.20;;
50086;SDS011;35967;50.718;7.050;2024-02-28T03:48:39;84.73;;;37.37;;
50086;SDS011;35967;50.718;7.050;2024-02-28T03:58:42;84.00;;;39.77;;
50086;SDS011;35967;50.718;7.050;2024-02-28T04:08:46;86.23;;;39.03;;
50086;SDS011;35967;50.718;7.050;2024-02-28T04:18:49;82.20;;;37.57;;
50086;SDS011;35967;50.718;7.050;2024-02-28T04:28:54;82.30;;;38.13;;
50086;SDS011;35967;50.718;7.050;2024-02-28T04:38:57;82.03;;;36.87;;
50086;SDS011;35967;50.718;7.050;2024-02-28T04:49:03;86.43;;;39.03;;
50086;SDS011;35967;50.718;7.050;2024-02-28T04:59:06;91.83;;;39.23;;
50086;SDS011;35967;50.718;7.050;2024-02-28T05:09:11;78.27;;;37.80;;
50086;SDS011;35967;50.718;7.050;2024-02-28T05:19:14;83.73;;;38.07;;
50086;SDS011;35967;50.718;7.050;2024-02-28T05:29:20;81.20;;;38.50;;
50086;SDS011;35967;50.718;7.050;2024-02-28T05:39:23;82.27;;;38.53;;
50086;SDS011;35967;50.718;7.050;2024-02-28T05:49:28;90.43;;;40.87;;
50086;SDS011;35967;50.718;7.050;2024-02-28T05:59:31;85.23;;;39.53;;
50086;SDS011;35967;50.718;7.050;2024-02-28T06:09:36;83.60;;;38.20;;
50086;SDS011;35967;50.718;7.050;2024-02-28T06:19:39;84.43;;;36.20;;
50086;SDS011;35967;50.718;7.050;2024-02-28T06:29:44;83.60;;;36.60;;
50086;SDS011;35967;50.718;7.050;2024-02-28T06:39:46;82.03;;;39.47;;
50086;SDS011;35967;50.718;7.050;2024-02-28T06:49:51;80.00;;;37.37;;
50086;SDS011;35967;50.718;7.050;2024-02-28T06:59:55;82.43;;;39.00;;
50086;SDS011;35967;50.718;7.050;2024-02-28T07:09:59;81.47;;;37.53;;
50086;SDS011;35967;50.718;7.050;2024-02-28T07:20:06;76.87;;;36.40;;
50086;SDS011;35967;50.718;7.050;2024-02-28T07:30:12;80.13;;;36.33;;
50086;SDS011;35967;50.718;7.050;2024-02-28T07:40:15;84.80;;;39.77;;
50086;SDS011;35967;50.718;7.050;2024-02-28T07:50:20;82.73;;;37.50;;
50086;SDS011;35967;50.718;7.050;2024-02-28T08:00:23;75.80;;;36.03;;
50086;SDS011;35967;50.718;7.050;2024-02-28T08:10:28;76.03;;;34.83;;
50086;SDS011;35967;50.718;7.050;2024-02-28T08:20:31;74.50;;;35.83;;
50086;SDS011;35967;50.718;7.050;2024-02-28T08:30:36;77.23;;;36.67;;
50086;SDS011;35967;50.718;7.050;2024-02-28T08:40:39;66.27;;;32.13;;
50086;SDS011;35967;50.718;7.050;2024-02-28T08:50:43;67.30;;;32.40;;
50086;SDS011;35967;50.718;7.050;2024-02-28T09:00:46;63.63;;;30.97;;
50086;SDS011;35967;50.718;7.050;2024-02-28T09:10:52;58.27;;;27.67;;
50086;SDS011;35967;50.718;7.050;2024-02-28T09:20:56;61.00;;;30.67;;
50086;SDS011;35967;50.718;7.050;2024-02-28T09:31:00;63.00;;;31.10;;
50086;SDS011;35967;50.718;7.050;2024-02-28T09:41:06;55.37;;;29.67;;
50086;SDS011;35967;50.718;7.050;2024-02-28T09:51:10;60.27;;;28.83;;
50086;SDS011;35967;50.718;7.050;2024-02-28T10:01:14;51.67;;;26.67;;
50086;SDS011;35967;50.718;7.050;2024-02-28T10:11:20;55.80;;;25.63;;
50086;SDS011;35967;50.718;7.050;2024-02-28T10:21:24;46.60;;;23.83;;
50086;SDS011;35967;50.718;7.050;2024-02-28T10:31:29;50.93;;;24.70;;
50086;SDS011;35967;50.718;7.050;2024-02-28T10:41:34;50.40;;;25.57;;
50086;SDS011;35967;50.718;7.050;2024-02-28T10:51:41;44.90;;;24.90;;
50086;SDS011;35967;50.718;7.050;2024-02-28T11:01:50;48.43;;;24.73;;
50086;SDS011;35967;50.718;7.050;2024-02-28T11:11:55;46.27;;;24.07;;
50086;SDS011;35967;50.718;7.050;2024-02-28T11:21:58;49.10;;;24.20;;
50086;SDS011;35967;50.718;7.050;2024-02-28T11:32:05;43.37;;;22.53;;
50086;SDS011;35967;50.718;7.050;2024-02-28T11:42:09;40.57;;;22.90;;
50086;SDS011;35967;50.718;7.050;2024-02-28T11:52:16;43.63;;;23.33;;
50086;SDS011;35967;50.718;7.050;2024-02-28T12:02:19;41.27;;;22.07;;
50086;SDS011;35967;50.718;7.050;2024-02-28T12:12:28;31.90;;;15.93;;
50086;SDS011;35967;50.718;7.050;2024-02-28T12:22:32;36.67;;;20.23;;
50086;SDS011;35967;50.718;7.050;2024-02-28T12:32:36;30.13;;;17.33;;
50086;SDS011;35967;50.718;7.050;2024-02-28T12:42:39;31.07;;;18.03;;
50086;SDS011;35967;50.718;7.050;2024-02-28T12:52:44;37.20;;;20.83;;
50086;SDS011;35967;50.718;7.050;2024-02-28T13:02:47;33.40;;;19.50;;
50086;SDS011;35967;50.718;7.050;2024-02-28T13:12:52;38.53;;;20.30;;
50086;SDS011;35967;50.718;7.050;2024-02-28T13:22:55;34.23;;;19.17;;
50086;SDS011;35967;50.718;7.050;2024-02-28T13:33:03;36.23;;;18.37;;
50086;SDS011;35967;50.718;7.050;2024-02-28T13:43:06;30.10;;;16.07;;
50086;SDS011;35967;50.718;7.050;2024-02-28T13:53:10;23.70;;;13.13;;
50086;SDS011;35967;50.718;7.050;2024-02-28T14:03:14;18.70;;;11.03;;
50086;SDS011;35967;50.718;7.050;2024-02-28T14:13:19;20.73;;;11.77;;
50086;SDS011;35967;50.718;7.050;2024-02-28T14:23:22;22.57;;;11.43;;
50086;SDS011;35967;50.718;7.050;2024-02-28T14:33:27;19.80;;;10.53;;
50086;SDS011;35967;50.718;7.050;2024-02-28T14:43:30;21.33;;;11.37;;
50086;SDS011;35967;50.718;7.050;2024-02-28T14:53:36;21.27;;;10.40;;
50086;SDS011;35967;50.718;7.050;2024-02-28T15:03:39;20.77;;;11.23;;
50086;SDS011;35967;50.718;7.050;2024-02-28T15:13:44;23.27;;;11.30;;
50086;SDS011;35967;50.718;7.050;2024-02-28T15:23:46;18.27;;;9.80;;
50086;SDS011;35967;50.718;7.050;2024-02-28T15:33:51;36.10;;;9.87;;
50086;SDS011;35967;50.718;7.050;2024-02-28T15:43:54;17.13;;;9.00;;
50086;SDS011;35967;50.718;7.050;2024-02-28T15:53:59;16.73;;;8.17;;
50086;SDS011;35967;50.718;7.050;2024-02-28T16:04:02;16.77;;;7.83;;
50086;SDS011;35967;50.718;7.050;2024-02-28T16:14:07;17.30;;;8.17;;
50086;SDS011;35967;50.718;7.050;2024-02-28T16:24:29;12.17;;;7.70;;
50086;SDS011;35967;50.718;7.050;2024-02-28T16:34:33;15.30;;;9.33;;
50086;SDS011;35967;50.718;7.050;2024-02-28T16:44:37;20.37;;;11.90;;
50086;SDS011;35967;50.718;7.050;2024-02-28T16:54:41;31.67;;;13.17;;
50086;SDS011;35967;50.718;7.050;2024-02-28T17:04:45;26.83;;;15.37;;
50086;SDS011;35967;50.718;7.050;2024-02-28T17:14:49;31.30;;;15.40;;
50086;SDS011;35967;50.718;7.050;2024-02-28T17:24:52;28.67;;;15.23;;
50086;SDS011;35967;50.718;7.050;2024-02-28T17:34:57;27.20;;;13.93;;
50086;SDS011;35967;50.718;7.050;2024-02-28T17:45:05;27.97;;;14.67;;
50086;SDS011;35967;50.718;7.050;2024-02-28T17:55:11;32.33;;;14.27;;
50086;SDS011;35967;50.718;7.050;2024-02-28T18:05:15;29.07;;;15.27;;
50086;SDS011;35967;50.718;7.050;2024-02-28T18:15:20;45.83;;;22.47;;
50086;SDS011;35967;50.718;7.050;2024-02-28T18:25:23;35.20;;;17.13;;
50086;SDS011;35967;50.718;7.050;2024-02-28T18:35:27;30.90;;;15.23;;
50086;SDS011;35967;50.718;7.050;2024-02-28T18:45:33;32.60;;;15.07;;
50086;SDS011;35967;50.718;7.050;2024-02-28T18:55:38;26.80;;;13.37;;
50086;SDS011;35967;50.718;7.050;2024-02-28T19:05:40;33.27;;;14.27;;
50086;SDS011;35967;50.718;7.050;2024-02-28T19:15:45;22.87;;;12.77;;
50086;SDS011;35967;50.718;7.050;2024-02-28T19:25:50;27.30;;;12.77;;
50086;SDS011;35967;50.718;7.050;2024-02-28T19:35:54;24.43;;;12.27;;
50086;SDS011;35967;50.718;7.050;2024-02-28T19:45:57;16.93;;;9.20;;
50086;SDS011;35967;50.718;7.050;2024-02-28T19:56:03;16.30;;;6.80;;
50086;SDS011;35967;50.718;7.050;2024-02-28T20:06:06;8.20;;;4.60;;
50086;SDS011;35967;50.718;7.050;2024-02-28T20:16:10;12.67;;;5.80;;
50086;SDS011;35967;50.718;7.050;2024-02-28T20:26:13;11.20;;;4.77;;
50086;SDS011;35967;50.718;7.050;2024-02-28T20:36:18;11.87;;;5.07;;
50086;SDS011;35967;50.718;7.050;2024-02-28T20:46:21;10.30;;;4.70;;
50086;SDS011;35967;50.718;7.050;2024-02-28T20:56:26;10.53;;;5.00;;
50086;SDS011;35967;50.718;7.050;2024-02-28T21:06:29;10.00;;;5.67;;
50086;SDS011;35967;50.718;7.050;2024-02-28T21:16:34;12.83;;;5.50;;
50086;SDS011;35967;50.718;7.050;2024-02-28T21:26:38;12.37;;;5.70;;
50086;SDS011;35967;50.718;7.050;2024-02-28T21:36:43;10.27;;;5.40;;
50086;SDS011;35967;50.718;7.050;2024-02-28T21:46:45;10.37;;;5.50;;
50086;SDS011;35967;50.718;7.050;2024-02-28T21:56:50;12.23;;;5.90;;
50086;SDS011;35967;50.718;7.050;2024-02-28T22:06:53;14.10;;;7.47;;
50086;SDS011;35967;50.718;7.050;2024-02-28T22:28:41;20.73;;;9.97;;
50086;SDS011;35967;50.718;7.050;2024-02-28T22:38:44;21.63;;;10.07;;
50086;SDS011;35967;50.718;7.050;2024-02-28T22:48:50;22.97;;;10.50;;
50086;SDS011;35967;50.718;7.050;2024-02-28T22:58:53;19.07;;;9.60;;
50086;SDS011;35967;50.718;7.050;2024-02-28T23:19:33;21.20;;;10.47;;
50086;SDS011;35967;50.718;7.050;2024-02-28T23:29:39;23.67;;;10.80;;
50086;SDS011;35967;50.718;7.050;2024-02-28T23:39:42;24.53;;;11.70;;
50086;SDS011;35967;50.718;7.050;2024-02-28T23:49:46;22.63;;;11.17;;
50086;SDS011;35967;50.718;7.050;2024-02-28T23:59:50;22.53;;;10.23;;
